Detall de PIREP

Printer-friendly versionPDF version

[2012/11/16 10:15:00]
Flight IATA:CT3122
Pilot Number:011
Company ICAO:CAT
Aircraft Type:F50/A
PAX:50
Aircraft Registration:DREAMWINGS
Departing Airport: LEPA
Destination Airport: LEZG
Alternate Airport:LEMD
Online: VATSIM
Route:DRAGO A29 PAPOS R80 MLA DCT
Flight Level:F200
No Slew and time accel
No pause
Crash detect
Detect pilot in Cockpit between each 30 and 45 minutes
10:15 Zero fuel Weight: 42042 Lbs, Fuel Weight: 2724 Lbs
10:15 VATSIM:LEPA 160930Z 05002KT 9999 FEW025 17/15 Q1019 NOSIG
10:15 VATSIM:LEZG 160930Z 13006KT 0150 R30R/0750N R12R/0550N R30L/0500N FG VV001 09/09 Q1019
10:18 Parking Brakes off
10:28 Take-off
10:28 Take off Weight: 44682 Lbs
10:28 Wind: 052º @ 002 Knots Heading: 237º
10:28 POS N39º 33´ 25´´ E002º 43´ 54´´
10:28 Gear Up: 137 Knots
10:28 Flaps:3 at 137 Knots
10:29 Flaps:2 at 160 Knots
10:30 Flaps:1 at 166 Knots
10:30 Flaps:0 at 167 Knots
10:39 TOC
10:39 Fuel Weight: 2262 Lb
10:43 Wind:062º@003 Knots Heading: 315º Ground Speed: 295 Knots Altitude 20170 ft
10:58 Wind:174º@003 Knots Heading: 297º Ground Speed: 295 Knots Altitude 20170 ft
11:07 TOD
11:07 Fuel Weight: 1379 Lb
11:13 Wind:104º@010 Knots Heading: 305º Ground Speed: 232 Knots Altitude 11505 ft
11:20 Flaps:1 at 161 Knots
11:21 Flaps:2 at 151 Knots
11:21 Flaps:3 at 149 Knots
11:22 Flaps:4 at 144 Knots
11:22 Gear Down: 144 Knots
11:22 Flaps:5 at 127 Knots
11:23 Flaps:6 at 110 Knots
11:26 TouchDown:Rate -88 ft/min Speed: 90 Knots
11:27 VATSIM:LEZG 161030Z 10004KT 1100 BR VV002 10/10 Q1019
11:27 Land
11:27 Wind:103º@004 Knots
11:27 Heading: 300º
11:27 Flight Duration: 00:59
11:27 Landing Weight: 43257 Lbs
11:27 POS N41º 39´ 40´´ W001º 01´ 19´´
11:31 Parking brakes on
11:31 Block to Block Duration: 01:13
11:31 Final Fuel: 1170Lbls
11:31 Spent Fuel: 1554 Lbls
11:31 Flight Length: 238 NM
11:31 TOD Land Length: 60 NM

Exportar CSV

Powered by Drupal - Modified by Danger4k